Terminal Aerodrome Forecast
Issued by NWS Quad Cities IA IL

Home | Current Version | Previous Version | Text Only | Print | Product List | Glossary On
Versions: 1 2 3 4 5 6 7 8 9 10 11 12 13 14 15
000
FTUS43 KDVN 221100
TAFDBQ
TAF
KDBQ 221123Z 2212/2312 19012KT P6SM SCT150
     FM221500 23013KT P6SM BKN150
     FM221900 26012KT P6SM SCT050 BKN120
     FM222200 32010KT P6SM SCT200
     FM230400 36004KT P6SM SKC=

USA.gov is the U.S. government's official web portal to all federal, state and local government web resources and services.